Time;durP1;ratioP1;P1;durP2;ratioP2;P2;SDS_P1;SDS_P2;PMS_P1;PMS_P2;Temp;Humidity;BMP_temperature;BMP_pressure;BME280_temperature;BME280_humidity;BME280_pressure;Samples;Min_cycle;Max_cycle;Signal;HPM_P1;HPM_P2
2023/09/23 00:01:26;;;;;;;5.00;1.27;;;11.20;99.90;;;;;;5032311;28;20460;-57
2023/09/23 00:03:53;;;;;;;5.63;1.30;;;11.20;99.90;;;;;;5040130;28;20053;-55
2023/09/23 00:06:23;;;;;;;5.28;1.20;;;11.20;99.90;;;;;;5063192;28;20127;-54
2023/09/23 00:08:50;;;;;;;1.83;0.90;;;11.20;99.90;;;;;;5059140;28;20423;-55
2023/09/23 00:11:18;;;;;;;5.72;1.13;;;11.10;99.90;;;;;;5061257;28;20048;-60
2023/09/23 00:13:45;;;;;;;2.63;1.48;;;11.10;99.90;;;;;;5056842;28;20503;-57
2023/09/23 00:16:15;;;;;;;5.90;1.25;;;11.20;99.90;;;;;;5057574;28;20053;-54
2023/09/23 00:18:46;;;;;;;3.90;1.23;;;11.10;99.90;;;;;;5051533;28;20052;-56
2023/09/23 00:21:13;;;;;;;6.13;1.20;;;11.10;99.90;;;;;;5044855;28;20084;-57
2023/09/23 00:23:40;;;;;;;3.83;1.00;;;11.10;99.90;;;;;;5062288;28;20511;-55
2023/09/23 00:26:07;;;;;;;7.20;1.15;;;11.00;99.90;;;;;;5063051;28;20044;-57
2023/09/23 00:28:34;;;;;;;5.63;1.10;;;10.90;99.90;;;;;;5052027;28;20067;-57
2023/09/23 00:31:11;;;;;;;5.32;1.38;;;10.90;99.90;;;;;;5059163;28;20041;-56
2023/09/23 00:33:39;;;;;;;2.42;1.20;;;11.00;99.90;;;;;;5062737;28;20122;-57
2023/09/23 00:36:08;;;;;;;3.67;1.58;;;11.00;99.90;;;;;;5061003;28;20041;-58
2023/09/23 00:38:36;;;;;;;2.85;1.02;;;10.90;99.90;;;;;;5050314;28;20057;-57
2023/09/23 00:41:06;;;;;;;5.85;1.42;;;10.90;99.90;;;;;;5055250;28;20090;-58
2023/09/23 00:43:33;;;;;;;4.25;1.00;;;10.80;99.90;;;;;;4695208;28;10000616;-56
2023/09/23 00:46:01;;;;;;;3.65;1.73;;;10.80;99.90;;;;;;5043544;28;20056;-56
2023/09/23 00:48:31;;;;;;;11.80;1.90;;;10.80;99.90;;;;;;5049887;28;20106;-56
2023/09/23 00:50:59;;;;;;;9.48;1.67;;;10.80;99.90;;;;;;5062381;28;20098;-55
2023/09/23 00:53:28;;;;;;;8.57;1.75;;;10.70;99.90;;;;;;5049872;28;20044;-56
2023/09/23 00:55:57;;;;;;;4.78;1.25;;;10.80;99.90;;;;;;5053474;28;20037;-56
2023/09/23 00:58:26;;;;;;;9.85;1.55;;;10.80;99.90;;;;;;5069211;28;20045;-56
2023/09/23 01:00:54;;;;;;;7.38;2.70;;;10.80;99.90;;;;;;5059775;28;20123;-57
2023/09/23 01:03:21;;;;;;;6.90;1.13;;;10.70;99.90;;;;;;5061531;28;20037;-57
2023/09/23 01:06:00;;;;;;;5.63;1.35;;;10.70;99.90;;;;;;5030461;28;20081;-56
2023/09/23 01:08:27;;;;;;;5.68;1.40;;;10.70;99.90;;;;;;5066461;28;20093;-57
2023/09/23 01:10:54;;;;;;;9.18;1.77;;;10.80;99.90;;;;;;5062404;28;20048;-55
2023/09/23 01:13:24;;;;;;;5.22;1.10;;;10.70;99.90;;;;;;5040750;28;20045;-57
2023/09/23 01:15:51;;;;;;;11.02;1.95;;;10.70;99.90;;;;;;5055563;28;20099;-57
2023/09/23 01:18:19;;;;;;;6.15;1.75;;;10.70;99.90;;;;;;5056006;28;20450;-57
2023/09/23 01:20:48;;;;;;;8.43;2.88;;;10.70;99.90;;;;;;5052700;28;20288;-57
2023/09/23 01:23:15;;;;;;;5.65;1.85;;;10.70;99.90;;;;;;5057331;28;20037;-56
2023/09/23 01:25:42;;;;;;;6.88;1.30;;;10.70;99.90;;;;;;5049390;28;20462;-57
2023/09/23 01:28:11;;;;;;;5.97;1.42;;;10.60;99.90;;;;;;5057320;28;20048;-55
2023/09/23 01:30:43;;;;;;;4.82;1.80;;;10.60;99.90;;;;;;5067590;28;20082;-58
2023/09/23 01:33:10;;;;;;;4.00;1.30;;;10.60;99.90;;;;;;5054104;28;20053;-55
2023/09/23 01:35:37;;;;;;;7.75;1.58;;;10.60;99.90;;;;;;5048863;28;20049;-57
2023/09/23 01:38:06;;;;;;;7.68;1.75;;;10.50;99.90;;;;;;5056671;28;20503;-56
2023/09/23 01:40:34;;;;;;;5.30;1.50;;;10.60;99.90;;;;;;5031338;28;20054;-57
2023/09/23 01:43:02;;;;;;;6.32;2.33;;;10.60;99.90;;;;;;5053211;28;20047;-56
2023/09/23 01:45:29;;;;;;;12.23;1.88;;;10.50;99.90;;;;;;5048339;28;20159;-55
2023/09/23 01:47:58;;;;;;;12.88;1.90;;;10.50;99.90;;;;;;5060864;28;20074;-56
2023/09/23 01:50:26;;;;;;;6.78;1.65;;;10.50;99.90;;;;;;5048780;28;20045;-56
2023/09/23 01:52:59;;;;;;;9.00;1.33;;;10.50;99.90;;;;;;5052673;28;20064;-54
2023/09/23 01:55:26;;;;;;;12.23;2.13;;;10.50;99.90;;;;;;5050829;28;20076;-56
2023/09/23 01:57:53;;;;;;;8.32;2.00;;;10.50;99.90;;;;;;5060286;28;20044;-57
2023/09/23 02:00:26;;;;;;;11.45;1.92;;;10.50;99.90;;;;;;5046863;28;20049;-56
2023/09/23 02:02:53;;;;;;;9.57;1.30;;;10.50;99.90;;;;;;5057589;28;20072;-56
2023/09/23 02:05:27;;;;;;;6.68;1.63;;;10.50;99.90;;;;;;5059758;28;20128;-56
2023/09/23 02:07:54;;;;;;;7.47;1.60;;;10.50;99.90;;;;;;5052669;28;20055;-57
2023/09/23 02:10:23;;;;;;;5.85;1.25;;;10.50;99.90;;;;;;5062328;28;20048;-56
2023/09/23 02:12:50;;;;;;;3.83;1.48;;;10.30;99.90;;;;;;5036249;28;20437;-56
2023/09/23 02:15:17;;;;;;;7.85;1.92;;;10.30;99.90;;;;;;5061659;28;20059;-56
2023/09/23 02:17:47;;;;;;;6.38;1.38;;;10.30;99.90;;;;;;5063876;28;20075;-57
2023/09/23 02:20:19;;;;;;;7.97;1.30;;;10.30;99.90;;;;;;5054726;28;20381;-57
2023/09/23 02:22:53;;;;;;;8.98;1.40;;;10.20;99.90;;;;;;5052290;28;20619;-56
2023/09/23 02:25:25;;;;;;;7.78;1.85;;;10.20;99.90;;;;;;5054686;28;20044;-56
2023/09/23 02:27:52;;;;;;;9.50;1.50;;;10.20;99.90;;;;;;5040047;28;20482;-54
2023/09/23 02:30:19;;;;;;;8.57;2.55;;;10.20;99.90;;;;;;5055330;28;20049;-55
2023/09/23 02:32:46;;;;;;;6.20;1.70;;;10.10;99.90;;;;;;5048046;28;20140;-56
2023/09/23 02:35:15;;;;;;;7.43;2.22;;;10.10;99.90;;;;;;5056207;28;20037;-58
2023/09/23 02:37:46;;;;;;;9.60;1.70;;;10.10;99.90;;;;;;5048474;28;20499;-57
2023/09/23 02:40:16;;;;;;;8.75;2.28;;;10.10;99.90;;;;;;5058680;28;20049;-57
2023/09/23 02:42:44;;;;;;;9.32;1.33;;;10.10;99.90;;;;;;5045902;28;20041;-55
2023/09/23 02:45:12;;;;;;;9.55;3.20;;;10.10;99.90;;;;;;5055710;28;20403;-54
2023/09/23 02:47:40;;;;;;;9.95;1.83;;;10.00;99.90;;;;;;5067108;28;20496;-57
2023/09/23 02:50:09;;;;;;;15.13;1.88;;;10.00;99.90;;;;;;5059546;28;20045;-56
2023/09/23 02:52:38;;;;;;;11.77;1.63;;;10.00;99.90;;;;;;5047293;28;20041;-57
2023/09/23 02:55:07;;;;;;;7.00;1.70;;;10.00;99.90;;;;;;5049345;28;20053;-57
2023/09/23 02:57:37;;;;;;;8.77;1.85;;;10.00;99.90;;;;;;5067147;28;20094;-55
2023/09/23 03:00:16;;;;;;;10.82;2.40;;;10.00;99.90;;;;;;5062829;28;20495;-57
2023/09/23 03:02:53;;;;;;;13.65;2.08;;;10.10;99.90;;;;;;5037118;28;20078;-58
2023/09/23 03:05:26;;;;;;;7.38;2.05;;;10.10;99.90;;;;;;5050855;28;20049;-58
2023/09/23 03:07:58;;;;;;;8.23;1.90;;;10.00;99.90;;;;;;5047508;28;20049;-57
2023/09/23 03:10:32;;;;;;;11.18;1.75;;;10.00;99.90;;;;;;5051033;28;20045;-56
2023/09/23 03:13:05;;;;;;;6.80;1.67;;;10.00;99.90;;;;;;5038674;28;20041;-57
2023/09/23 03:15:48;;;;;;;11.13;2.10;;;9.90;99.90;;;;;;5051257;28;20073;-57
2023/09/23 03:18:15;;;;;;;7.60;1.83;;;9.90;99.90;;;;;;5066530;28;20056;-56
2023/09/23 03:20:42;;;;;;;9.15;1.42;;;9.90;99.90;;;;;;5063346;28;20048;-56
2023/09/23 03:23:09;;;;;;;5.20;1.50;;;9.90;99.90;;;;;;5047865;28;20052;-57
2023/09/23 03:25:46;;;;;;;8.02;1.23;;;9.80;99.90;;;;;;5051169;28;20139;-56
2023/09/23 03:28:16;;;;;;;14.00;1.67;;;9.90;99.90;;;;;;5064186;28;20533;-57
2023/09/23 03:30:47;;;;;;;9.98;2.95;;;9.80;99.90;;;;;;5051866;28;20044;-57
2023/09/23 03:33:21;;;;;;;12.18;2.30;;;9.80;99.90;;;;;;5047463;28;20311;-57
2023/09/23 03:35:49;;;;;;;6.00;1.90;;;9.80;99.90;;;;;;5050594;28;20045;-57
2023/09/23 03:38:16;;;;;;;6.95;1.67;;;9.80;99.90;;;;;;5051241;28;20045;-55
2023/09/23 03:40:51;;;;;;;10.40;1.67;;;9.80;99.90;;;;;;5050960;28;20053;-55
2023/09/23 03:43:18;;;;;;;11.82;1.75;;;9.80;99.90;;;;;;5043520;28;20044;-56
2023/09/23 03:45:45;;;;;;;7.32;1.75;;;9.80;99.90;;;;;;5062128;28;20113;-55
2023/09/23 03:48:12;;;;;;;10.48;1.67;;;9.80;99.90;;;;;;5054058;28;20053;-56
2023/09/23 03:50:39;;;;;;;15.10;2.10;;;9.80;99.90;;;;;;5055074;28;20036;-57
2023/09/23 03:53:05;;;;;;;9.30;1.55;;;9.80;99.90;;;;;;5060894;28;20360;-58
2023/09/23 03:55:32;;;;;;;7.15;2.00;;;9.80;99.90;;;;;;5067638;28;20136;-57
2023/09/23 03:58:01;;;;;;;6.78;1.73;;;9.80;99.90;;;;;;5061409;28;20404;-57
2023/09/23 04:00:27;;;;;;;13.35;2.03;;;9.80;99.90;;;;;;5050761;28;20052;-56
2023/09/23 04:02:54;;;;;;;11.63;2.00;;;9.80;99.90;;;;;;5059819;28;20097;-58
2023/09/23 04:05:23;;;;;;;7.80;2.05;;;9.80;99.90;;;;;;5061531;28;20057;-57
2023/09/23 04:07:50;;;;;;;5.50;1.48;;;9.80;99.90;;;;;;5039654;28;20044;-56
2023/09/23 04:10:19;;;;;;;4.25;1.60;;;9.70;99.90;;;;;;5032885;28;20435;-55
2023/09/23 04:12:46;;;;;;;10.52;1.35;;;9.80;99.90;;;;;;5055280;28;20504;-53
2023/09/23 04:15:13;;;;;;;15.65;2.35;;;9.70;99.90;;;;;;5070586;28;20102;-55
2023/09/23 04:17:40;;;;;;;7.63;1.58;;;9.70;99.90;;;;;;5058247;28;20487;-56
2023/09/23 04:20:10;;;;;;;8.88;2.10;;;9.70;99.90;;;;;;5067097;28;20052;-52
2023/09/23 04:22:37;;;;;;;15.90;2.45;;;9.70;99.90;;;;;;5054835;28;20041;-55
2023/09/23 04:25:05;;;;;;;4.88;1.42;;;9.70;99.90;;;;;;5068085;28;20056;-52
2023/09/23 04:27:33;;;;;;;10.80;2.38;;;9.70;99.90;;;;;;5065253;28;20055;-52
2023/09/23 04:30:01;;;;;;;4.95;1.63;;;9.70;99.90;;;;;;5053843;28;20389;-54
2023/09/23 04:32:28;;;;;;;4.25;1.80;;;9.70;99.90;;;;;;5054866;28;20037;-53
2023/09/23 04:34:56;;;;;;;8.15;1.48;;;9.70;99.90;;;;;;5063890;28;20049;-55
2023/09/23 04:37:23;;;;;;;9.38;2.45;;;9.70;99.90;;;;;;5065659;28;20041;-56
2023/09/23 04:39:50;;;;;;;9.02;2.13;;;9.70;99.90;;;;;;5058517;28;20048;-56
2023/09/23 04:42:18;;;;;;;5.65;2.42;;;9.70;99.90;;;;;;5053430;28;20047;-55
2023/09/23 04:44:45;;;;;;;10.82;2.33;;;9.60;99.90;;;;;;5048948;28;20041;-53
2023/09/23 04:47:12;;;;;;;8.00;1.08;;;9.60;99.90;;;;;;5068214;28;20530;-55
2023/09/23 04:49:40;;;;;;;13.70;2.28;;;9.70;99.90;;;;;;5058630;28;20044;-53
2023/09/23 04:52:07;;;;;;;13.95;1.75;;;9.70;99.90;;;;;;5050895;28;20562;-54
2023/09/23 04:54:34;;;;;;;9.02;1.88;;;9.70;99.90;;;;;;5058689;28;20089;-57
2023/09/23 04:57:03;;;;;;;4.65;1.30;;;9.60;99.90;;;;;;5069277;28;20125;-57
2023/09/23 04:59:32;;;;;;;9.27;1.20;;;9.60;99.90;;;;;;5056295;28;20299;-54
2023/09/23 05:02:00;;;;;;;5.88;1.98;;;9.60;99.90;;;;;;5052181;28;20040;-56
2023/09/23 05:04:27;;;;;;;8.32;1.67;;;9.60;99.90;;;;;;5062070;28;20070;-55
2023/09/23 05:06:54;;;;;;;12.45;2.15;;;9.60;99.90;;;;;;5058333;28;20045;-57
2023/09/23 05:09:21;;;;;;;6.25;1.85;;;9.60;99.90;;;;;;5053010;28;20094;-56
2023/09/23 05:11:51;;;;;;;10.20;1.73;;;9.60;99.90;;;;;;5051247;28;20052;-57
2023/09/23 05:14:17;;;;;;;7.82;2.03;;;9.60;99.90;;;;;;5050480;28;20135;-56
2023/09/23 05:16:44;;;;;;;8.73;2.42;;;9.60;99.90;;;;;;5067055;28;20480;-56
2023/09/23 05:19:11;;;;;;;14.73;1.90;;;9.60;99.90;;;;;;5061406;28;20052;-55
2023/09/23 05:21:39;;;;;;;5.57;1.65;;;9.60;99.90;;;;;;5050840;28;20512;-56
2023/09/23 05:24:09;;;;;;;6.22;2.00;;;9.50;99.90;;;;;;5022409;28;20122;-54
2023/09/23 05:26:36;;;;;;;9.20;2.40;;;9.50;99.90;;;;;;5054716;28;20862;-57
2023/09/23 05:29:03;;;;;;;13.98;1.98;;;9.50;99.90;;;;;;5057085;28;20045;-57
2023/09/23 05:31:30;;;;;;;7.50;1.55;;;9.50;99.90;;;;;;5034396;28;20051;-54
2023/09/23 05:33:57;;;;;;;9.80;1.60;;;9.50;99.90;;;;;;5064661;28;20045;-56
2023/09/23 05:36:25;;;;;;;7.00;1.80;;;9.50;99.90;;;;;;5059416;28;20488;-54
2023/09/23 05:38:51;;;;;;;7.07;1.65;;;9.50;99.90;;;;;;5049378;28;20423;-57
2023/09/23 05:41:23;;;;;;;9.07;1.70;;;9.50;99.90;;;;;;5057257;28;20102;-57
2023/09/23 05:43:52;;;;;;;15.02;2.05;;;9.40;99.90;;;;;;5068317;28;20049;-57
2023/09/23 05:46:19;;;;;;;5.25;1.80;;;9.50;99.90;;;;;;5055567;28;20047;-56
2023/09/23 05:48:49;;;;;;;20.38;5.28;;;9.50;99.90;;;;;;5048770;28;20049;-56
2023/09/23 05:51:16;;;;;;;10.13;2.45;;;9.40;99.90;;;;;;5050459;28;20049;-56
2023/09/23 05:53:43;;;;;;;7.30;2.03;;;9.50;99.90;;;;;;5048297;28;20045;-56
2023/09/23 05:56:09;;;;;;;8.48;2.03;;;9.40;99.90;;;;;;5053590;28;20044;-55
2023/09/23 05:58:36;;;;;;;10.85;1.52;;;9.40;99.90;;;;;;5068170;28;20141;-55
2023/09/23 06:01:03;;;;;;;10.50;2.03;;;9.40;99.90;;;;;;4698284;28;10000368;-56
2023/09/23 06:03:31;;;;;;;6.50;1.75;;;9.40;99.90;;;;;;5055414;28;20135;-56
2023/09/23 06:05:58;;;;;;;9.00;1.67;;;9.40;99.90;;;;;;5054483;28;20105;-55
2023/09/23 06:08:25;;;;;;;6.85;1.55;;;9.40;99.90;;;;;;5040614;28;20045;-55
2023/09/23 06:10:52;;;;;;;8.55;1.70;;;9.40;99.90;;;;;;5037801;28;20057;-54
2023/09/23 06:13:19;;;;;;;11.93;1.77;;;9.40;99.90;;;;;;5026825;28;20436;-56
2023/09/23 06:15:46;;;;;;;6.80;2.45;;;9.40;99.90;;;;;;5047718;28;20121;-57
2023/09/23 06:18:12;;;;;;;7.30;1.65;;;9.40;99.90;;;;;;5049275;28;20114;-52
2023/09/23 06:20:39;;;;;;;6.25;1.48;;;9.40;99.90;;;;;;5045621;28;20501;-55
2023/09/23 06:23:06;;;;;;;5.13;1.60;;;9.50;99.90;;;;;;5055006;28;20357;-54
2023/09/23 06:25:33;;;;;;;9.40;1.88;;;9.50;99.90;;;;;;5043738;28;20258;-54
2023/09/23 06:28:00;;;;;;;6.38;1.83;;;9.50;99.90;;;;;;5041286;28;20578;-53
2023/09/23 06:30:27;;;;;;;4.30;1.50;;;9.60;99.90;;;;;;5041383;28;20049;-54
2023/09/23 06:32:53;;;;;;;8.73;1.60;;;9.60;99.90;;;;;;5044789;28;20115;-55
2023/09/23 06:35:20;;;;;;;7.55;1.70;;;9.60;99.90;;;;;;5036781;28;20415;-53
2023/09/23 06:37:47;;;;;;;9.38;1.52;;;9.60;99.90;;;;;;5022394;28;20128;-55
2023/09/23 06:40:14;;;;;;;13.95;2.72;;;9.60;99.90;;;;;;5041165;28;20059;-54
2023/09/23 06:42:41;;;;;;;5.00;1.20;;;9.70;99.90;;;;;;5042314;28;20466;-55
2023/09/23 06:45:09;;;;;;;10.20;2.17;;;9.70;99.90;;;;;;5041923;28;20048;-55
2023/09/23 06:47:36;;;;;;;9.30;1.88;;;9.70;99.90;;;;;;5036422;28;20068;-54
2023/09/23 06:50:04;;;;;;;8.98;1.88;;;9.80;99.90;;;;;;5037574;28;20100;-52
2023/09/23 06:52:31;;;;;;;5.50;1.85;;;9.80;99.90;;;;;;5043731;28;20048;-57
2023/09/23 06:54:59;;;;;;;9.95;1.60;;;9.90;99.90;;;;;;5043136;28;20095;-51
2023/09/23 06:57:26;;;;;;;9.65;1.85;;;9.90;99.90;;;;;;5034093;28;20099;-52
2023/09/23 06:59:53;;;;;;;13.70;1.90;;;9.90;99.90;;;;;;5038285;28;20415;-57
2023/09/23 07:02:20;;;;;;;6.78;1.30;;;10.00;99.90;;;;;;5043823;28;20107;-57
2023/09/23 07:04:47;;;;;;;8.68;1.85;;;10.00;99.90;;;;;;5042715;28;20099;-57
2023/09/23 07:07:14;;;;;;;7.03;1.48;;;10.10;99.90;;;;;;5033908;28;20083;-58
2023/09/23 07:09:41;;;;;;;9.15;2.25;;;10.10;99.90;;;;;;5034307;28;20518;-58
2023/09/23 07:12:12;;;;;;;7.70;2.40;;;10.10;99.90;;;;;;5033283;28;20049;-53
2023/09/23 07:14:39;;;;;;;8.98;1.75;;;10.20;99.90;;;;;;5035844;28;20049;-54
2023/09/23 07:17:06;;;;;;;11.80;2.72;;;10.20;99.90;;;;;;5035397;28;20055;-53
2023/09/23 07:19:34;;;;;;;10.45;2.65;;;10.30;99.90;;;;;;5045866;28;20513;-55
2023/09/23 07:22:01;;;;;;;7.47;1.35;;;10.40;99.90;;;;;;5018921;28;20053;-52
2023/09/23 07:24:29;;;;;;;8.73;2.75;;;10.40;99.90;;;;;;5039845;28;20052;-52
2023/09/23 07:26:57;;;;;;;3.20;1.60;;;10.50;99.90;;;;;;5028455;28;20057;-56
2023/09/23 07:29:25;;;;;;;10.88;1.77;;;10.50;99.90;;;;;;5047161;28;20514;-54
2023/09/23 07:31:54;;;;;;;6.40;2.13;;;10.60;99.90;;;;;;5040274;28;20142;-54
2023/09/23 07:34:22;;;;;;;14.63;2.13;;;10.70;99.90;;;;;;5026124;28;20511;-51
2023/09/23 07:36:49;;;;;;;10.07;2.10;;;10.70;99.90;;;;;;5035740;28;20044;-53
2023/09/23 07:39:16;;;;;;;9.18;1.95;;;10.80;99.90;;;;;;5027357;28;20099;-53
2023/09/23 07:41:43;;;;;;;8.57;2.78;;;10.80;99.90;;;;;;5039863;28;20159;-56
2023/09/23 07:44:11;;;;;;;8.85;1.60;;;10.90;99.90;;;;;;5039514;28;20059;-57
2023/09/23 07:46:38;;;;;;;4.57;1.85;;;10.90;99.90;;;;;;5044220;28;20140;-56
2023/09/23 07:49:05;;;;;;;5.82;1.80;;;11.00;99.90;;;;;;5044873;28;20049;-56
2023/09/23 07:51:31;;;;;;;10.27;2.38;;;11.00;99.90;;;;;;5024753;28;20484;-55
2023/09/23 07:53:58;;;;;;;10.73;2.15;;;11.00;99.90;;;;;;5038082;28;20130;-54
2023/09/23 07:56:25;;;;;;;9.48;1.92;;;11.10;99.90;;;;;;5044592;28;20049;-58
2023/09/23 07:58:52;;;;;;;3.50;1.52;;;11.20;99.90;;;;;;5040774;28;20220;-58
2023/09/23 08:01:19;;;;;;;7.80;1.83;;;11.30;99.90;;;;;;5039977;28;20130;-58
2023/09/23 08:03:46;;;;;;;9.27;1.30;;;11.40;99.90;;;;;;5036204;28;20056;-57
2023/09/23 08:06:13;;;;;;;7.60;1.73;;;11.40;99.90;;;;;;5042340;28;20048;-55
2023/09/23 08:08:40;;;;;;;8.88;2.17;;;11.50;99.90;;;;;;5033863;28;20052;-56
2023/09/23 08:11:06;;;;;;;10.13;2.22;;;11.50;99.90;;;;;;5048960;28;20090;-57
2023/09/23 08:13:33;;;;;;;7.60;1.73;;;11.60;99.90;;;;;;5047395;28;20427;-57
2023/09/23 08:16:00;;;;;;;5.82;1.70;;;11.60;99.90;;;;;;5031561;28;20058;-57
2023/09/23 08:18:27;;;;;;;12.55;1.92;;;11.60;99.90;;;;;;5034571;28;20041;-58
2023/09/23 08:20:57;;;;;;;10.05;2.00;;;11.60;99.90;;;;;;5046127;28;20049;-57
2023/09/23 08:23:24;;;;;;;5.82;1.88;;;11.70;99.90;;;;;;5023451;28;20052;-58
2023/09/23 08:25:52;;;;;;;7.97;2.08;;;11.70;99.90;;;;;;5045238;28;20484;-58
2023/09/23 08:28:19;;;;;;;6.00;2.22;;;11.80;99.90;;;;;;5037519;28;20110;-58
2023/09/23 08:30:47;;;;;;;9.07;1.73;;;11.80;99.90;;;;;;5041341;28;20492;-57
2023/09/23 08:33:14;;;;;;;6.32;1.60;;;11.90;99.90;;;;;;5037863;28;20115;-58
2023/09/23 08:35:42;;;;;;;8.40;2.22;;;11.90;99.90;;;;;;5048703;28;20506;-57
2023/09/23 08:38:09;;;;;;;11.73;2.42;;;11.90;99.90;;;;;;5028727;28;20048;-53
2023/09/23 08:40:36;;;;;;;9.45;2.45;;;12.00;99.90;;;;;;5044421;28;20522;-57
2023/09/23 08:43:06;;;;;;;7.00;1.80;;;12.10;99.90;;;;;;5010175;28;20040;-55
2023/09/23 08:45:33;;;;;;;8.48;2.17;;;12.10;99.90;;;;;;5036752;28;20048;-55
2023/09/23 08:48:01;;;;;;;8.45;2.20;;;12.20;99.90;;;;;;5029545;28;20416;-58
2023/09/23 08:50:29;;;;;;;7.22;1.45;;;12.30;99.90;;;;;;5029312;28;20055;-57
2023/09/23 08:52:56;;;;;;;5.03;1.52;;;12.40;99.90;;;;;;5022919;28;20049;-55
2023/09/23 08:55:24;;;;;;;8.63;1.83;;;12.40;99.90;;;;;;5022434;28;20107;-56
2023/09/23 08:57:51;;;;;;;8.30;1.85;;;12.60;99.90;;;;;;5031190;28;20486;-57
2023/09/23 09:00:19;;;;;;;10.48;2.00;;;12.60;99.90;;;;;;5013882;28;20467;-58
2023/09/23 09:02:46;;;;;;;6.20;2.13;;;12.70;99.90;;;;;;5041617;28;20533;-57
2023/09/23 09:05:14;;;;;;;9.85;2.25;;;13.00;99.90;;;;;;5030073;28;20060;-58
2023/09/23 09:07:41;;;;;;;8.52;2.28;;;13.30;99.90;;;;;;5051544;28;20053;-58
2023/09/23 09:10:08;;;;;;;10.45;1.88;;;13.60;99.90;;;;;;5044089;28;20124;-58
2023/09/23 09:12:35;;;;;;;9.85;2.00;;;13.80;99.90;;;;;;5040648;28;20134;-56
2023/09/23 09:15:01;;;;;;;7.18;1.75;;;14.10;99.90;;;;;;5028503;28;20429;-57
2023/09/23 09:17:30;;;;;;;9.55;1.83;;;14.00;99.90;;;;;;5027426;28;20060;-57
2023/09/23 09:19:57;;;;;;;15.95;2.60;;;14.10;99.90;;;;;;5044243;28;20088;-58
2023/09/23 09:22:24;;;;;;;6.47;1.85;;;14.20;99.90;;;;;;5023653;28;20057;-57
2023/09/23 09:24:51;;;;;;;10.20;3.10;;;14.50;99.90;;;;;;5045670;28;20123;-57
2023/09/23 09:27:18;;;;;;;8.07;2.05;;;14.90;99.90;;;;;;5038534;28;20546;-57
2023/09/23 09:29:45;;;;;;;10.20;1.77;;;15.10;99.90;;;;;;5048333;28;20048;-57
2023/09/23 09:32:17;;;;;;;5.80;1.80;;;14.90;99.90;;;;;;5040524;28;20118;-56
2023/09/23 09:34:45;;;;;;;8.32;1.98;;;14.60;99.90;;;;;;5010288;28;20519;-56
2023/09/23 09:37:15;;;;;;;9.98;2.08;;;14.40;99.90;;;;;;5036035;28;20064;-57
2023/09/23 09:39:56;;;;;;;7.85;2.03;;;14.30;99.90;;;;;;5023464;28;20092;-55
2023/09/23 09:42:33;;;;;;;9.30;3.13;;;14.30;99.90;;;;;;5040441;28;20077;-56
2023/09/23 09:45:00;;;;;;;9.13;1.73;;;14.30;99.90;;;;;;5033333;28;20209;-57
2023/09/23 09:47:27;;;;;;;5.63;1.40;;;14.30;99.90;;;;;;5032748;28;20051;-57
2023/09/23 09:49:57;;;;;;;3.20;1.33;;;14.20;99.90;;;;;;5024449;28;20045;-58
2023/09/23 09:52:24;;;;;;;10.38;1.92;;;14.20;99.90;;;;;;5045731;28;20047;-55
2023/09/23 09:54:55;;;;;;;9.85;2.30;;;14.20;99.90;;;;;;5054308;28;20094;-57
2023/09/23 09:57:22;;;;;;;6.25;1.77;;;14.20;99.90;;;;;;5031525;28;20400;-59
2023/09/23 09:59:51;;;;;;;9.57;1.60;;;14.20;99.90;;;;;;5052678;28;20475;-58
2023/09/23 10:02:18;;;;;;;7.35;1.92;;;14.30;99.90;;;;;;5047685;28;20645;-55
2023/09/23 10:04:46;;;;;;;10.15;2.60;;;14.30;99.90;;;;;;5028580;28;20523;-55
2023/09/23 10:07:12;;;;;;;7.57;2.60;;;14.40;99.90;;;;;;5034281;28;20576;-52
2023/09/23 10:09:48;;;;;;;9.85;2.25;;;14.40;99.90;;;;;;5051331;28;20202;-53
2023/09/23 10:12:19;;;;;;;8.75;1.90;;;14.40;99.90;;;;;;5029015;28;20103;-55
2023/09/23 10:14:57;;;;;;;11.95;2.88;;;14.40;99.90;;;;;;5016669;28;20069;-56
2023/09/23 10:17:31;;;;;;;9.60;2.05;;;14.30;99.90;;;;;;5038729;28;20053;-55
2023/09/23 10:19:58;;;;;;;11.15;2.13;;;14.50;99.90;;;;;;5044908;28;20447;-55
2023/09/23 10:22:28;;;;;;;7.90;1.88;;;14.50;99.90;;;;;;5034535;28;20053;-57
2023/09/23 10:25:04;;;;;;;14.82;2.42;;;14.60;99.90;;;;;;5045530;28;20579;-56
2023/09/23 10:27:32;;;;;;;7.68;2.03;;;14.70;99.90;;;;;;5043630;28;20049;-56
2023/09/23 10:30:00;;;;;;;18.77;2.65;;;14.80;99.90;;;;;;5048006;28;20041;-58
2023/09/23 10:32:28;;;;;;;8.27;1.95;;;14.80;99.90;;;;;;5025587;28;20046;-57
2023/09/23 10:34:55;;;;;;;8.77;1.88;;;14.80;99.90;;;;;;5030886;28;20495;-56
2023/09/23 10:37:30;;;;;;;14.32;2.10;;;14.90;99.90;;;;;;5029067;28;20057;-55
2023/09/23 10:40:09;;;;;;;9.57;1.75;;;14.90;99.90;;;;;;5037787;28;20062;-56
2023/09/23 10:42:37;;;;;;;13.00;1.70;;;15.00;99.90;;;;;;5045596;28;20304;-57
2023/09/23 10:45:05;;;;;;;3.88;1.40;;;15.10;99.90;;;;;;5042868;28;20136;-54
2023/09/23 10:47:32;;;;;;;8.43;2.28;;;15.10;99.90;;;;;;5041185;28;20044;-57
2023/09/23 10:49:59;;;;;;;7.78;1.98;;;15.20;99.90;;;;;;5044284;28;20040;-55
2023/09/23 10:52:26;;;;;;;8.07;1.60;;;15.30;99.90;;;;;;5054435;28;20420;-56
2023/09/23 10:54:53;;;;;;;5.15;1.30;;;15.40;99.90;;;;;;5031161;28;20102;-59
2023/09/23 10:57:20;;;;;;;6.85;1.38;;;15.40;99.90;;;;;;5034810;28;20052;-56
2023/09/23 10:59:47;;;;;;;14.20;2.13;;;15.50;99.90;;;;;;5045829;28;20619;-57
2023/09/23 11:02:14;;;;;;;6.78;1.20;;;15.60;99.90;;;;;;5030373;28;20045;-58
2023/09/23 11:04:48;;;;;;;4.22;1.00;;;15.60;99.90;;;;;;5041282;28;20052;-55
2023/09/23 11:07:20;;;;;;;9.40;1.77;;;15.50;99.90;;;;;;5044163;28;20415;-58
2023/09/23 11:09:47;;;;;;;5.15;1.77;;;15.60;99.90;;;;;;5037513;28;20554;-57
2023/09/23 11:12:15;;;;;;;4.07;1.15;;;15.70;99.90;;;;;;4668928;28;10000114;-57
2023/09/23 11:14:50;;;;;;;9.30;1.65;;;15.90;99.90;;;;;;5034520;28;20433;-58
2023/09/23 11:17:25;;;;;;;8.05;1.50;;;15.90;99.90;;;;;;5049182;28;20045;-56
2023/09/23 11:19:56;;;;;;;4.85;1.90;;;16.00;99.90;;;;;;5032150;28;20045;-58
2023/09/23 11:22:26;;;;;;;7.28;1.48;;;16.00;99.90;;;;;;5044494;28;20404;-57
2023/09/23 11:24:53;;;;;;;4.95;1.00;;;16.00;99.90;;;;;;5026273;28;20050;-56
2023/09/23 11:27:24;;;;;;;6.07;1.77;;;16.00;99.90;;;;;;5054501;28;20059;-56
2023/09/23 11:29:51;;;;;;;7.60;1.42;;;16.00;99.90;;;;;;5034634;28;20041;-56
2023/09/23 11:32:25;;;;;;;4.95;1.65;;;16.10;99.90;;;;;;5039913;28;20048;-57
2023/09/23 11:34:52;;;;;;;;;;;16.10;99.90;;;;;;5026978;28;20579;-57
2023/09/23 11:37:22;;;;;;;5.57;1.38;;;16.20;99.90;;;;;;5035476;28;20019;-57
2023/09/23 11:39:50;;;;;;;6.57;1.75;;;16.20;99.90;;;;;;5038657;28;20052;-55
2023/09/23 11:42:17;;;;;;;6.15;1.20;;;16.00;99.90;;;;;;5034909;28;20155;-56
2023/09/23 11:44:43;;;;;;;7.35;1.60;;;16.10;99.90;;;;;;5041526;28;20052;-56
2023/09/23 11:47:10;;;;;;;8.25;1.48;;;16.20;99.90;;;;;;5048726;28;20500;-54
2023/09/23 11:49:37;;;;;;;5.90;1.50;;;16.30;99.90;;;;;;5046365;28;20420;-54
2023/09/23 11:52:11;;;;;;;6.30;1.23;;;16.40;99.90;;;;;;5029030;28;20403;-56
2023/09/23 11:54:40;;;;;;;3.92;1.38;;;16.50;99.90;;;;;;5025343;28;20103;-55
2023/09/23 11:57:08;;;;;;;4.43;1.40;;;16.30;99.90;;;;;;5026144;28;20041;-57
2023/09/23 11:59:35;;;;;;;4.43;1.27;;;16.40;99.90;;;;;;5041200;28;20123;-58
2023/09/23 12:02:02;;;;;;;5.75;1.33;;;16.40;99.90;;;;;;5043803;28;20049;-57
2023/09/23 12:04:30;;;;;;;9.68;1.40;;;16.50;99.90;;;;;;5033797;28;20048;-58
2023/09/23 12:06:57;;;;;;;6.40;1.25;;;16.60;99.90;;;;;;5043778;28;20044;-57
2023/09/23 12:09:24;;;;;;;7.35;1.88;;;16.70;99.90;;;;;;5051706;28;20041;-57
2023/09/23 12:11:51;;;;;;;6.95;1.25;;;16.60;99.90;;;;;;5037592;28;20581;-55
2023/09/23 12:14:19;;;;;;;5.57;1.65;;;16.60;99.90;;;;;;5042839;28;20183;-54
2023/09/23 12:16:46;;;;;;;3.72;1.05;;;16.60;99.90;;;;;;5040035;28;20045;-57
2023/09/23 12:19:13;;;;;;;4.03;1.30;;;16.70;99.90;;;;;;5054281;28;20249;-57
2023/09/23 12:21:40;;;;;;;5.70;1.85;;;16.80;99.90;;;;;;5044542;28;20051;-58
2023/09/23 12:24:08;;;;;;;5.93;1.70;;;16.70;99.90;;;;;;5054844;28;20125;-58
2023/09/23 12:26:35;;;;;;;5.30;1.00;;;16.70;99.90;;;;;;5033797;28;20052;-57
2023/09/23 12:29:02;;;;;;;4.75;1.40;;;16.70;99.90;;;;;;5055588;28;20123;-57
2023/09/23 12:31:29;;;;;;;7.15;1.10;;;16.60;99.90;;;;;;5055866;28;20566;-57
2023/09/23 12:33:56;;;;;;;3.53;1.02;;;16.60;99.90;;;;;;5053896;28;20045;-58
2023/09/23 12:36:24;;;;;;;5.72;1.80;;;16.70;99.90;;;;;;5055464;28;20053;-56
2023/09/23 12:38:54;;;;;;;2.67;1.52;;;16.80;99.90;;;;;;5046731;28;20087;-57
2023/09/23 12:41:21;;;;;;;3.72;1.40;;;16.90;99.90;;;;;;5047310;28;20463;-57
2023/09/23 12:43:48;;;;;;;8.52;1.30;;;17.00;99.90;;;;;;5048186;28;20049;-57
2023/09/23 12:46:14;;;;;;;5.05;1.15;;;17.00;99.90;;;;;;5040225;28;20529;-58
2023/09/23 12:48:43;;;;;;;5.55;1.02;;;17.00;99.90;;;;;;5048781;28;20056;-56
2023/09/23 12:51:12;;;;;;;6.60;1.60;;;17.00;99.90;;;;;;5028780;28;20053;-56
2023/09/23 12:53:39;;;;;;;5.22;1.38;;;17.00;99.90;;;;;;5034881;28;20535;-56